Time;durP1;ratioP1;P1;durP2;ratioP2;P2;SDS_P1;SDS_P2;PMS_P1;PMS_P2;Temp;Humidity;BMP_temperature;BMP_pressure;BME280_temperature;BME280_humidity;BME280_pressure;Samples;Min_cycle;Max_cycle;Signal;HPM_P1;HPM_P2
2023/07/30 00:01:21;;;;;;;11.02;3.95;;;;;;;;;;5093080;28;20464;-73
2023/07/30 00:03:46;;;;;;;7.32;4.13;;;;;;;;;;5093047;28;20036;-73
2023/07/30 00:06:11;;;;;;;5.45;3.45;;;;;;;;;;5093091;28;20053;-73
2023/07/30 00:08:37;;;;;;;5.55;3.78;;;;;;;;;;5074839;28;20062;-73
2023/07/30 00:11:02;;;;;;;5.15;3.33;;;;;;;;;;5092884;28;20032;-73
2023/07/30 00:13:27;;;;;;;6.88;3.83;;;;;;;;;;5092910;28;20020;-73
2023/07/30 00:15:53;;;;;;;5.55;3.50;;;;;;;;;;5092784;28;20478;-73
2023/07/30 00:18:18;;;;;;;6.13;3.45;;;;;;;;;;5074965;28;20028;-73
2023/07/30 00:20:43;;;;;;;6.85;3.47;;;;;;;;;;5074308;28;20028;-73
2023/07/30 00:23:09;;;;;;;8.35;3.90;;;;;;;;;;5074917;28;20367;-72
2023/07/30 00:25:34;;;;;;;10.32;3.45;;;;;;;;;;5092827;28;20024;-73
2023/07/30 00:27:59;;;;;;;7.85;3.35;;;;;;;;;;5092880;28;20141;-72
2023/07/30 00:30:25;;;;;;;8.82;3.60;;;;;;;;;;5090140;28;20050;-74
2023/07/30 00:32:50;;;;;;;5.60;3.63;;;;;;;;;;5054142;28;20028;-73
2023/07/30 00:35:15;;;;;;;12.25;4.03;;;;;;;;;;5072540;28;20111;-73
2023/07/30 00:37:40;;;;;;;13.75;4.72;;;;;;;;;;5072439;28;20025;-73
2023/07/30 00:40:06;;;;;;;6.72;3.97;;;;;;;;;;5072072;28;20020;-73
2023/07/30 00:42:31;;;;;;;7.82;3.50;;;;;;;;;;5054582;28;20060;-73
2023/07/30 00:44:57;;;;;;;9.27;4.82;;;;;;;;;;5054874;28;20036;-73
2023/07/30 00:47:22;;;;;;;5.65;3.25;;;;;;;;;;5072275;28;20442;-73
2023/07/30 00:49:48;;;;;;;6.25;3.20;;;;;;;;;;5054569;28;20027;-73
2023/07/30 00:52:16;;;;;;;7.85;3.85;;;;;;;;;;5054128;28;20409;-73
2023/07/30 00:54:41;;;;;;;7.28;3.63;;;;;;;;;;5057240;28;20028;-74
2023/07/30 00:57:07;;;;;;;9.85;3.83;;;;;;;;;;5092125;28;20028;-73
2023/07/30 00:59:33;;;;;;;9.43;4.05;;;;;;;;;;5057563;28;20020;-73
2023/07/30 01:01:58;;;;;;;10.02;3.95;;;;;;;;;;5074642;28;20020;-73
2023/07/30 01:04:24;;;;;;;8.50;4.55;;;;;;;;;;5093139;28;20031;-74
2023/07/30 01:06:49;;;;;;;7.85;4.30;;;;;;;;;;5095651;28;20106;-73
2023/07/30 01:09:15;;;;;;;10.05;5.00;;;;;;;;;;5095966;28;20438;-73
2023/07/30 01:11:41;;;;;;;18.42;5.80;;;;;;;;;;5077906;28;20024;-73
2023/07/30 01:14:10;;;;;;;12.95;5.65;;;;;;;;;;5077680;28;20473;-73
2023/07/30 01:16:35;;;;;;;13.25;5.70;;;;;;;;;;5077415;28;20489;-73
2023/07/30 01:19:04;;;;;;;11.25;4.70;;;;;;;;;;5095333;28;20055;-73
2023/07/30 01:21:31;;;;;;;12.23;5.75;;;;;;;;;;5095381;28;20028;-74
2023/07/30 01:23:57;;;;;;;12.07;5.82;;;;;;;;;;5077607;28;20020;-73
2023/07/30 01:26:24;;;;;;;12.90;6.22;;;;;;;;;;5095267;28;20012;-73
2023/07/30 01:28:54;;;;;;;14.85;5.57;;;;;;;;;;5077352;28;20024;-73
2023/07/30 01:31:20;;;;;;;10.63;5.78;;;;;;;;;;5063600;28;20126;-74
2023/07/30 01:33:48;;;;;;;14.02;5.32;;;;;;;;;;5076921;28;20050;-74
2023/07/30 01:36:15;;;;;;;14.75;5.40;;;;;;;;;;5077075;28;20385;-73
2023/07/30 01:38:40;;;;;;;10.07;4.95;;;;;;;;;;5060452;28;20024;-73
2023/07/30 01:41:05;;;;;;;13.23;5.03;;;;;;;;;;5077092;28;20028;-73
2023/07/30 01:43:31;;;;;;;14.52;6.63;;;;;;;;;;5076808;28;20058;-73
2023/07/30 01:45:56;;;;;;;12.95;5.93;;;;;;;;;;5094904;28;20064;-74
2023/07/30 01:48:21;;;;;;;9.82;5.72;;;;;;;;;;5095055;28;20102;-73
2023/07/30 01:50:48;;;;;;;9.43;4.85;;;;;;;;;;5076977;28;20478;-73
2023/07/30 01:53:14;;;;;;;9.38;4.65;;;;;;;;;;5077343;28;20032;-73
2023/07/30 01:55:46;;;;;;;11.57;6.57;;;;;;;;;;5094616;28;20038;-73
2023/07/30 01:58:12;;;;;;;12.43;5.10;;;;;;;;;;5076735;28;20475;-73
2023/07/30 02:00:39;;;;;;;13.52;4.78;;;;;;;;;;5077213;28;20131;-73
2023/07/30 02:03:05;;;;;;;10.30;4.68;;;;;;;;;;5076376;28;20074;-73
2023/07/30 02:05:30;;;;;;;13.98;6.03;;;;;;;;;;5094482;28;20481;-73
2023/07/30 02:07:58;;;;;;;10.90;5.47;;;;;;;;;;5094658;28;20501;-73
2023/07/30 02:10:25;;;;;;;10.35;5.43;;;;;;;;;;5094384;28;20104;-73
2023/07/30 02:12:50;;;;;;;13.23;5.07;;;;;;;;;;5076530;28;20028;-73
2023/07/30 02:15:16;;;;;;;14.57;5.57;;;;;;;;;;5093710;28;20107;-73
2023/07/30 02:17:41;;;;;;;14.57;5.65;;;;;;;;;;5094249;28;20016;-73
2023/07/30 02:20:07;;;;;;;8.18;4.70;;;;;;;;;;5094732;28;20533;-73
2023/07/30 02:22:32;;;;;;;12.05;4.85;;;;;;;;;;5094202;28;20020;-73
2023/07/30 02:24:58;;;;;;;9.80;6.10;;;;;;;;;;5060397;28;20046;-72
2023/07/30 02:27:23;;;;;;;9.88;4.72;;;;;;;;;;5093696;28;20489;-73
2023/07/30 02:29:48;;;;;;;10.45;4.40;;;;;;;;;;5094189;28;20032;-74
2023/07/30 02:32:13;;;;;;;7.95;5.30;;;;;;;;;;5094285;28;20084;-73
2023/07/30 02:34:39;;;;;;;13.80;6.30;;;;;;;;;;5094224;28;20034;-73
2023/07/30 02:37:04;;;;;;;16.90;7.10;;;;;;;;;;5075474;28;20016;-73
2023/07/30 02:39:29;;;;;;;14.75;6.18;;;;;;;;;;5075842;28;20077;-73
2023/07/30 02:41:55;;;;;;;11.98;6.30;;;;;;;;;;5094136;28;20116;-73
2023/07/30 02:44:20;;;;;;;16.00;6.03;;;;;;;;;;5094132;28;20023;-73
2023/07/30 02:46:45;;;;;;;17.27;6.03;;;;;;;;;;5093976;28;20456;-73
2023/07/30 02:49:10;;;;;;;17.15;6.35;;;;;;;;;;5093489;28;20062;-73
2023/07/30 02:51:36;;;;;;;15.68;5.97;;;;;;;;;;5093743;28;20027;-73
2023/07/30 02:54:04;;;;;;;8.15;4.68;;;;;;;;;;5094231;28;20019;-73
2023/07/30 02:56:30;;;;;;;11.57;5.57;;;;;;;;;;5075273;28;20032;-73
2023/07/30 02:58:55;;;;;;;14.05;5.93;;;;;;;;;;5093908;28;20028;-72
2023/07/30 03:01:20;;;;;;;17.67;6.65;;;;;;;;;;5093762;28;20078;-73
2023/07/30 03:03:45;;;;;;;9.93;5.68;;;;;;;;;;5075047;28;20032;-73
2023/07/30 03:06:11;;;;;;;14.43;6.20;;;;;;;;;;5094198;28;20111;-72
2023/07/30 03:08:36;;;;;;;11.30;5.13;;;;;;;;;;5093384;28;20492;-73
2023/07/30 03:11:02;;;;;;;9.25;5.13;;;;;;;;;;5076467;28;20046;-72
2023/07/30 03:13:27;;;;;;;14.85;5.65;;;;;;;;;;5093216;28;20028;-73
2023/07/30 03:15:53;;;;;;;14.40;6.63;;;;;;;;;;5093048;28;20020;-73
2023/07/30 03:18:18;;;;;;;12.70;5.60;;;;;;;;;;5075219;28;20505;-73
2023/07/30 03:20:43;;;;;;;15.77;5.40;;;;;;;;;;5075379;28;20083;-74
2023/07/30 03:23:08;;;;;;;14.00;5.78;;;;;;;;;;5093558;28;20049;-73
2023/07/30 03:25:34;;;;;;;11.90;5.43;;;;;;;;;;5093361;28;20028;-73
2023/07/30 03:27:59;;;;;;;11.05;5.75;;;;;;;;;;5074383;28;20020;-73
2023/07/30 03:30:24;;;;;;;10.35;4.82;;;;;;;;;;5092744;28;20455;-73
2023/07/30 03:32:53;;;;;;;10.50;5.80;;;;;;;;;;5075225;28;20023;-73
2023/07/30 03:35:18;;;;;;;12.32;6.22;;;;;;;;;;5093016;28;21620;-73
2023/07/30 03:37:44;;;;;;;19.50;7.32;;;;;;;;;;5093206;28;20024;-73
2023/07/30 03:40:09;;;;;;;15.57;6.93;;;;;;;;;;5092536;28;20016;-73
2023/07/30 03:42:35;;;;;;;15.38;5.95;;;;;;;;;;5092998;28;20020;-73
2023/07/30 03:45:00;;;;;;;13.88;6.53;;;;;;;;;;5075110;28;20024;-73
2023/07/30 03:47:26;;;;;;;18.30;6.50;;;;;;;;;;5093123;28;20020;-73
2023/07/30 03:49:51;;;;;;;13.52;6.78;;;;;;;;;;5075119;28;20017;-73
2023/07/30 03:52:17;;;;;;;14.23;6.60;;;;;;;;;;5092609;28;20393;-74
2023/07/30 03:54:42;;;;;;;18.23;6.55;;;;;;;;;;5092622;28;20027;-73
2023/07/30 03:57:07;;;;;;;12.38;6.15;;;;;;;;;;5092626;28;20032;-73
2023/07/30 03:59:33;;;;;;;14.30;7.18;;;;;;;;;;5093043;28;20027;-73
2023/07/30 04:01:58;;;;;;;13.30;6.53;;;;;;;;;;5074547;28;20111;-74
2023/07/30 04:04:24;;;;;;;14.43;6.15;;;;;;;;;;5075041;28;20027;-73
2023/07/30 04:06:49;;;;;;;18.13;7.03;;;;;;;;;;5106311;22;20615;-76
2023/07/30 04:09:14;;;;;;;15.63;6.43;;;;;;;;;;5093125;28;20031;-76
2023/07/30 04:11:40;;;;;;;15.30;6.50;;;;;;;;;;5093243;28;20493;-76
2023/07/30 04:14:07;;;;;;;13.35;6.45;;;;;;;;;;5093412;28;20113;-76
2023/07/30 04:16:33;;;;;;;18.13;7.45;;;;;;;;;;5092453;28;20568;-76
2023/07/30 04:18:58;;;;;;;20.17;6.78;;;;;;;;;;5093191;28;20060;-76
2023/07/30 04:21:24;;;;;;;20.10;7.18;;;;;;;;;;5093140;28;20505;-76
2023/07/30 04:23:49;;;;;;;15.20;7.07;;;;;;;;;;5075061;28;20020;-76
2023/07/30 04:26:14;;;;;;;21.95;7.18;;;;;;;;;;5075127;28;20386;-76
2023/07/30 04:28:40;;;;;;;16.77;7.15;;;;;;;;;;5092399;28;20024;-76
2023/07/30 04:31:05;;;;;;;17.50;7.80;;;;;;;;;;5075352;28;20057;-77
2023/07/30 04:33:30;;;;;;;18.92;7.68;;;;;;;;;;5092638;28;20047;-77
2023/07/30 04:35:55;;;;;;;22.35;8.52;;;;;;;;;;5074570;28;20054;-77
2023/07/30 04:38:21;;;;;;;15.02;8.45;;;;;;;;;;5076366;28;20114;-76
2023/07/30 04:40:46;;;;;;;17.10;7.30;;;;;;;;;;5097521;28;20028;-77
2023/07/30 04:43:11;;;;;;;21.20;7.22;;;;;;;;;;5096838;28;20419;-77
2023/07/30 04:45:37;;;;;;;17.50;6.65;;;;;;;;;;5078620;28;20024;-77
2023/07/30 04:48:02;;;;;;;17.42;6.78;;;;;;;;;;5096813;28;20038;-77
2023/07/30 04:50:27;;;;;;;18.02;7.00;;;;;;;;;;5077973;28;20481;-77
2023/07/30 04:52:52;;;;;;;19.92;7.10;;;;;;;;;;5096839;28;20031;-77
2023/07/30 04:55:18;;;;;;;17.02;6.90;;;;;;;;;;5096620;28;20031;-77
2023/07/30 04:57:43;;;;;;;21.42;7.90;;;;;;;;;;5078678;28;20157;-77
2023/07/30 05:00:09;;;;;;;12.35;5.93;;;;;;;;;;5078171;28;20020;-77
2023/07/30 05:02:34;;;;;;;23.42;8.55;;;;;;;;;;5095930;28;20466;-76
2023/07/30 05:04:59;;;;;;;21.20;7.82;;;;;;;;;;5096214;28;20023;-77
2023/07/30 05:07:25;;;;;;;16.55;6.63;;;;;;;;;;5078339;28;20123;-77
2023/07/30 05:09:50;;;;;;;18.38;7.10;;;;;;;;;;5078393;28;20024;-76
2023/07/30 05:12:15;;;;;;;16.35;6.97;;;;;;;;;;5078442;28;20020;-77
2023/07/30 05:14:40;;;;;;;15.88;6.75;;;;;;;;;;5077673;28;20038;-77
2023/07/30 05:17:06;;;;;;;19.00;7.15;;;;;;;;;;5096888;28;20075;-77
2023/07/30 05:19:32;;;;;;;15.13;7.82;;;;;;;;;;5078617;28;20368;-76
2023/07/30 05:21:59;;;;;;;20.02;8.32;;;;;;;;;;5096200;28;20478;-76
2023/07/30 05:24:24;;;;;;;21.08;8.63;;;;;;;;;;5096142;28;20075;-76
2023/07/30 05:26:49;;;;;;;20.38;6.47;;;;;;;;;;5077860;28;20016;-76
2023/07/30 05:29:15;;;;;;;16.33;6.80;;;;;;;;;;5095700;28;20531;-76
2023/07/30 05:31:40;;;;;;;16.67;7.07;;;;;;;;;;5096376;28;20020;-77
2023/07/30 05:34:05;;;;;;;22.30;7.95;;;;;;;;;;5077972;28;20036;-76
2023/07/30 05:36:31;;;;;;;21.83;8.50;;;;;;;;;;5095853;28;20057;-76
2023/07/30 05:38:56;;;;;;;16.58;6.90;;;;;;;;;;5077300;28;20478;-77
2023/07/30 05:41:21;;;;;;;20.92;7.70;;;;;;;;;;5096058;28;20046;-76
2023/07/30 05:43:47;;;;;;;21.52;7.97;;;;;;;;;;5078002;28;20418;-77
2023/07/30 05:46:12;;;;;;;24.38;7.68;;;;;;;;;;5077643;28;20024;-77
2023/07/30 05:48:38;;;;;;;17.67;7.00;;;;;;;;;;5077303;28;20119;-76
2023/07/30 05:51:03;;;;;;;16.05;6.30;;;;;;;;;;5077068;28;20026;-76
2023/07/30 05:53:29;;;;;;;13.80;7.20;;;;;;;;;;5077665;28;20474;-76
2023/07/30 05:55:54;;;;;;;15.93;6.68;;;;;;;;;;5077619;28;20032;-76
2023/07/30 05:58:19;;;;;;;19.90;7.47;;;;;;;;;;5060624;28;20028;-76
2023/07/30 06:00:44;;;;;;;18.05;6.47;;;;;;;;;;5095620;28;20455;-76
2023/07/30 06:03:10;;;;;;;15.52;6.25;;;;;;;;;;5095283;28;20028;-76
2023/07/30 06:05:41;;;;;;;21.35;6.25;;;;;;;;;;5077726;28;20432;-76
2023/07/30 06:08:07;;;;;;;12.95;5.90;;;;;;;;;;5077299;28;20035;-77
2023/07/30 06:10:36;;;;;;;17.90;6.32;;;;;;;;;;5095555;28;20024;-77
2023/07/30 06:13:02;;;;;;;15.70;6.47;;;;;;;;;;5094706;28;20547;-77
2023/07/30 06:15:27;;;;;;;17.33;6.07;;;;;;;;;;5095196;28;20035;-76
2023/07/30 06:17:53;;;;;;;12.30;5.05;;;;;;;;;;5095037;28;20016;-76
2023/07/30 06:20:18;;;;;;;10.57;4.55;;;;;;;;;;5077162;28;20465;-77
2023/07/30 06:22:43;;;;;;;14.07;5.00;;;;;;;;;;5095319;28;20020;-76
2023/07/30 06:25:09;;;;;;;10.38;5.15;;;;;;;;;;5076936;28;20077;-77
2023/07/30 06:27:34;;;;;;;25.63;6.00;;;;;;;;;;5094362;28;20488;-77
2023/07/30 06:29:59;;;;;;;12.75;4.53;;;;;;;;;;5095269;28;20020;-77
2023/07/30 06:32:24;;;;;;;13.30;4.55;;;;;;;;;;5095099;28;20028;-77
2023/07/30 06:34:50;;;;;;;14.70;4.53;;;;;;;;;;5094922;28;20055;-77
2023/07/30 06:37:15;;;;;;;6.95;3.28;;;;;;;;;;5076505;28;20469;-77
2023/07/30 06:39:40;;;;;;;13.00;3.85;;;;;;;;;;5077174;28;20028;-76
2023/07/30 06:42:06;;;;;;;8.90;4.35;;;;;;;;;;5076388;28;20434;-76
2023/07/30 06:44:31;;;;;;;13.02;4.28;;;;;;;;;;5094890;28;20031;-76
2023/07/30 06:46:56;;;;;;;13.63;4.93;;;;;;;;;;5076321;28;20020;-76
2023/07/30 06:49:22;;;;;;;11.52;5.70;;;;;;;;;;5093930;28;20473;-76
2023/07/30 06:51:48;;;;;;;16.80;4.43;;;;;;;;;;5076487;28;20024;-76
2023/07/30 06:54:13;;;;;;;12.80;4.47;;;;;;;;;;5094677;28;20469;-75
2023/07/30 06:56:38;;;;;;;12.52;4.57;;;;;;;;;;5094832;28;20028;-75
2023/07/30 06:59:04;;;;;;;10.65;4.90;;;;;;;;;;5094336;28;20020;-76
2023/07/30 07:01:29;;;;;;;13.38;4.47;;;;;;;;;;5078077;28;20106;-77
2023/07/30 07:03:54;;;;;;;13.75;4.47;;;;;;;;;;5061739;28;20444;-77
2023/07/30 07:06:20;;;;;;;18.23;5.90;;;;;;;;;;5094307;28;20547;-75
2023/07/30 07:08:45;;;;;;;13.20;5.25;;;;;;;;;;5094273;28;20024;-76
2023/07/30 07:11:11;;;;;;;16.38;6.15;;;;;;;;;;5094495;28;20027;-76
2023/07/30 07:13:36;;;;;;;15.40;5.32;;;;;;;;;;5076360;28;20453;-76
2023/07/30 07:16:01;;;;;;;16.77;6.53;;;;;;;;;;5093562;28;20032;-76
2023/07/30 07:18:26;;;;;;;13.70;5.05;;;;;;;;;;5076019;28;20054;-77
2023/07/30 07:20:52;;;;;;;19.58;6.20;;;;;;;;;;5076520;28;20030;-77
2023/07/30 07:23:17;;;;;;;13.00;4.82;;;;;;;;;;5093652;28;20085;-77
2023/07/30 07:25:44;;;;;;;10.52;4.82;;;;;;;;;;5059602;28;20453;-77
2023/07/30 07:28:11;;;;;;;11.55;5.20;;;;;;;;;;5094663;28;20085;-76
2023/07/30 07:30:36;;;;;;;14.73;4.13;;;;;;;;;;5059855;28;20051;-77
2023/07/30 07:33:02;;;;;;;11.82;3.83;;;;;;;;;;5094604;28;20032;-77
2023/07/30 07:35:27;;;;;;;9.82;3.38;;;;;;;;;;5075415;28;20052;-77
2023/07/30 07:37:52;;;;;;;11.48;4.05;;;;;;;;;;5093403;28;20020;-76
2023/07/30 07:40:17;;;;;;;16.48;4.50;;;;;;;;;;5093780;28;20033;-77
2023/07/30 07:42:43;;;;;;;10.35;3.72;;;;;;;;;;5093886;28;20114;-77
2023/07/30 07:45:08;;;;;;;11.20;3.58;;;;;;;;;;5093865;28;20028;-77
2023/07/30 07:47:34;;;;;;;12.32;4.15;;;;;;;;;;5075933;28;20017;-76
2023/07/30 07:49:59;;;;;;;12.50;4.00;;;;;;;;;;5075430;28;20039;-77
2023/07/30 07:52:25;;;;;;;10.77;4.65;;;;;;;;;;5075984;28;20027;-77
2023/07/30 07:54:50;;;;;;;8.18;4.18;;;;;;;;;;5075755;28;20020;-77
2023/07/30 07:57:15;;;;;;;16.45;4.65;;;;;;;;;;5059063;28;20107;-76
2023/07/30 07:59:44;;;;;;;24.88;5.40;;;;;;;;;;5094122;28;20051;-77
2023/07/30 08:02:09;;;;;;;9.88;4.30;;;;;;;;;;5059299;28;20504;-76
2023/07/30 08:04:35;;;;;;;11.00;4.60;;;;;;;;;;5081544;28;20024;-77
2023/07/30 08:07:03;;;;;;;13.07;4.88;;;;;;;;;;5040701;28;20024;-77
2023/07/30 08:09:28;;;;;;;15.80;5.43;;;;;;;;;;5074977;28;20038;-77
2023/07/30 08:11:53;;;;;;;12.77;4.72;;;;;;;;;;5075161;28;20012;-77
2023/07/30 08:14:19;;;;;;;15.15;5.10;;;;;;;;;;5096393;28;20028;-77
2023/07/30 08:16:46;;;;;;;15.68;6.25;;;;;;;;;;5097987;28;20390;-76
2023/07/30 08:19:12;;;;;;;10.63;5.10;;;;;;;;;;5079527;28;20110;-76
2023/07/30 08:21:37;;;;;;;14.57;4.82;;;;;;;;;;5098282;28;20070;-77
2023/07/30 08:24:02;;;;;;;20.73;4.82;;;;;;;;;;5080026;28;20489;-77
2023/07/30 08:26:28;;;;;;;15.60;4.60;;;;;;;;;;5078960;28;20020;-78
2023/07/30 08:28:53;;;;;;;10.68;4.18;;;;;;;;;;5097929;28;20055;-77
2023/07/30 08:31:18;;;;;;;12.63;4.50;;;;;;;;;;5079498;28;20023;-76
2023/07/30 08:33:43;;;;;;;16.33;5.35;;;;;;;;;;5079306;28;20103;-77
2023/07/30 08:36:09;;;;;;;8.35;4.07;;;;;;;;;;5097434;28;20509;-78
2023/07/30 08:38:34;;;;;;;11.38;4.75;;;;;;;;;;5078328;28;20032;-77
2023/07/30 08:41:00;;;;;;;11.85;4.57;;;;;;;;;;5079459;28;20028;-77
2023/07/30 08:43:25;;;;;;;14.52;5.40;;;;;;;;;;5079538;28;20031;-76
2023/07/30 08:45:50;;;;;;;13.90;5.05;;;;;;;;;;5079709;28;20040;-77
2023/07/30 08:48:16;;;;;;;16.95;4.22;;;;;;;;;;5078870;28;20016;-77
2023/07/30 08:50:48;;;;;;;14.10;4.13;;;;;;;;;;5097102;28;20086;-77
2023/07/30 08:53:14;;;;;;;13.68;5.32;;;;;;;;;;5080540;28;20085;-76
2023/07/30 08:55:40;;;;;;;12.38;4.25;;;;;;;;;;5096909;28;20032;-76
2023/07/30 08:58:05;;;;;;;11.18;4.45;;;;;;;;;;5079356;28;20461;-76
2023/07/30 09:00:34;;;;;;;18.75;4.95;;;;;;;;;;5078572;28;20032;-76
2023/07/30 09:03:00;;;;;;;17.73;5.60;;;;;;;;;;5079563;28;20039;-75
2023/07/30 09:05:29;;;;;;;16.73;4.53;;;;;;;;;;5080210;28;20020;-77
2023/07/30 09:07:54;;;;;;;14.35;4.72;;;;;;;;;;5097651;28;20043;-77
2023/07/30 09:10:20;;;;;;;16.27;4.43;;;;;;;;;;5080283;28;20028;-77
2023/07/30 09:12:45;;;;;;;15.57;5.07;;;;;;;;;;5062010;28;20024;-76
2023/07/30 09:15:10;;;;;;;12.88;5.07;;;;;;;;;;5097414;28;20050;-78
2023/07/30 09:17:36;;;;;;;16.50;5.10;;;;;;;;;;5062264;28;20059;-77
2023/07/30 09:20:05;;;;;;;16.10;4.45;;;;;;;;;;5079259;28;20070;-77
2023/07/30 09:22:40;;;;;;;14.13;4.70;;;;;;;;;;5079435;28;20070;-77
2023/07/30 09:25:06;;;;;;;10.32;4.50;;;;;;;;;;5078169;28;20157;-76
2023/07/30 09:27:32;;;;;;;12.05;4.72;;;;;;;;;;5079028;28;20065;-77
2023/07/30 09:29:58;;;;;;;14.45;4.57;;;;;;;;;;5062261;28;20032;-79
2023/07/30 09:32:27;;;;;;;15.60;4.63;;;;;;;;;;5097145;28;20016;-79
2023/07/30 09:34:53;;;;;;;12.52;4.78;;;;;;;;;;5098102;28;20473;-78
2023/07/30 09:37:18;;;;;;;15.20;4.40;;;;;;;;;;5086187;28;20039;-79
2023/07/30 09:39:43;;;;;;;15.68;5.18;;;;;;;;;;5097779;28;20062;-79
2023/07/30 09:42:09;;;;;;;16.13;5.40;;;;;;;;;;5097269;28;20024;-77
2023/07/30 09:44:37;;;;;;;16.38;5.93;;;;;;;;;;5096038;28;20119;-76
2023/07/30 09:47:05;;;;;;;12.98;5.47;;;;;;;;;;5079038;28;20020;-77
2023/07/30 09:49:31;;;;;;;16.83;5.68;;;;;;;;;;5062954;28;20443;-77
2023/07/30 09:51:57;;;;;;;21.45;5.72;;;;;;;;;;5079985;28;20445;-78
2023/07/30 09:54:23;;;;;;;16.95;6.65;;;;;;;;;;5079884;28;20509;-77
2023/07/30 09:56:48;;;;;;;13.48;5.07;;;;;;;;;;5096191;28;20051;-78
2023/07/30 09:59:17;;;;;;;18.73;5.75;;;;;;;;;;5062259;28;20107;-78
2023/07/30 10:01:44;;;;;;;17.00;5.78;;;;;;;;;;5078550;28;20023;-78
2023/07/30 10:04:10;;;;;;;16.40;5.22;;;;;;;;;;5061625;28;20028;-78
2023/07/30 10:06:41;;;;;;;15.18;4.95;;;;;;;;;;5159207;22;20054;-78
2023/07/30 10:09:09;;;;;;;11.35;5.82;;;;;;;;;;5069624;28;20028;-76
2023/07/30 10:11:36;;;;;;;20.48;5.15;;;;;;;;;;5081968;28;20027;-76
2023/07/30 10:14:01;;;;;;;12.95;4.88;;;;;;;;;;5079422;28;20432;-78
2023/07/30 10:16:28;;;;;;;11.90;4.78;;;;;;;;;;5083733;28;20028;-76
2023/07/30 10:18:57;;;;;;;14.23;5.15;;;;;;;;;;5083043;28;20508;-76
2023/07/30 10:21:24;;;;;;;12.60;4.38;;;;;;;;;;5079941;28;20068;-76
2023/07/30 10:24:03;;;;;;;14.65;5.25;;;;;;;;;;5077140;28;20024;-76
2023/07/30 10:26:30;;;;;;;11.75;3.75;;;;;;;;;;5060550;28;20012;-75
2023/07/30 10:29:12;;;;;;;11.68;4.10;;;;;;;;;;5077871;28;20471;-76
2023/07/30 10:31:39;;;;;;;14.70;4.28;;;;;;;;;;5043853;28;20393;-76
2023/07/30 10:34:08;;;;;;;13.32;4.25;;;;;;;;;;5066727;28;20021;-76
2023/07/30 10:36:43;;;;;;;12.48;3.20;;;;;;;;;;5071080;28;20044;-77
2023/07/30 10:39:12;;;;;;;10.15;3.15;;;;;;;;;;5073468;28;20020;-78
2023/07/30 10:41:38;;;;;;;13.63;3.42;;;;;;;;;;5090557;28;20024;-76
2023/07/30 10:44:03;;;;;;;9.85;3.00;;;;;;;;;;5103860;28;20047;-76
2023/07/30 10:46:28;;;;;;;11.80;4.43;;;;;;;;;;5074713;28;20016;-77
2023/07/30 10:48:54;;;;;;;9.63;2.72;;;;;;;;;;5103054;28;20028;-76
2023/07/30 10:51:23;;;;;;;11.80;3.92;;;;;;;;;;5083500;28;20024;-77
2023/07/30 10:53:50;;;;;;;13.57;4.18;;;;;;;;;;5084913;28;20525;-76
2023/07/30 10:56:17;;;;;;;10.75;3.20;;;;;;;;;;5083558;28;20031;-76
2023/07/30 10:58:42;;;;;;;10.45;3.08;;;;;;;;;;5088206;28;20095;-77
2023/07/30 11:01:09;;;;;;;12.52;2.88;;;;;;;;;;5066329;28;20104;-76
2023/07/30 11:03:36;;;;;;;9.05;2.88;;;;;;;;;;5109729;28;20071;-76
2023/07/30 11:06:02;;;;;;;10.20;2.42;;;;;;;;;;5103636;28;20091;-76
2023/07/30 11:08:42;;;;;;;11.65;3.13;;;;;;;;;;5101610;28;20052;-76
2023/07/30 11:11:09;;;;;;;7.25;2.92;;;;;;;;;;5083853;28;20054;-76
2023/07/30 11:13:40;;;;;;;13.85;3.03;;;;;;;;;;5065039;28;20073;-76
2023/07/30 11:16:07;;;;;;;10.55;3.13;;;;;;;;;;5077153;28;20046;-77
2023/07/30 11:18:35;;;;;;;16.48;3.75;;;;;;;;;;5077052;28;20050;-76
2023/07/30 11:21:08;;;;;;;17.63;3.25;;;;;;;;;;5076864;28;20027;-76
2023/07/30 11:23:34;;;;;;;20.13;4.32;;;;;;;;;;5075982;28;20066;-75
2023/07/30 11:26:01;;;;;;;14.38;4.35;;;;;;;;;;5076485;28;20067;-76
2023/07/30 11:28:30;;;;;;;15.20;5.05;;;;;;;;;;5076194;28;20020;-76
2023/07/30 11:30:59;;;;;;;11.50;3.47;;;;;;;;;;5094344;28;20048;-76
2023/07/30 11:33:24;;;;;;;9.32;3.33;;;;;;;;;;5076595;28;20023;-75
2023/07/30 11:35:50;;;;;;;13.75;4.72;;;;;;;;;;5076400;28;20015;-75
2023/07/30 11:38:16;;;;;;;18.27;3.20;;;;;;;;;;5058580;28;20382;-76
2023/07/30 11:40:42;;;;;;;11.35;4.50;;;;;;;;;;5059477;28;20027;-76
2023/07/30 11:43:07;;;;;;;12.88;3.40;;;;;;;;;;5076134;28;20397;-76
2023/07/30 11:45:32;;;;;;;5.97;2.72;;;;;;;;;;5076074;28;20041;-77
2023/07/30 11:48:09;;;;;;;9.13;3.65;;;;;;;;;;5092765;28;20024;-76
2023/07/30 11:50:48;;;;;;;9.75;3.33;;;;;;;;;;5059253;28;20024;-76
2023/07/30 11:53:14;;;;;;;6.30;2.85;;;;;;;;;;5075673;28;20058;-75
2023/07/30 11:55:42;;;;;;;12.80;3.13;;;;;;;;;;5075413;28;20042;-76
2023/07/30 11:58:11;;;;;;;6.97;2.85;;;;;;;;;;5076091;28;20039;-75
2023/07/30 12:00:37;;;;;;;7.78;2.47;;;;;;;;;;5076156;28;20100;-76
2023/07/30 12:03:03;;;;;;;9.38;4.18;;;;;;;;;;5075992;28;20401;-75
2023/07/30 12:05:39;;;;;;;9.77;3.08;;;;;;;;;;5075702;28;20085;-75
2023/07/30 12:08:07;;;;;;;11.48;3.80;;;;;;;;;;5076234;28;20024;-76
2023/07/30 12:10:47;;;;;;;10.70;2.63;;;;;;;;;;5075481;28;20117;-75
2023/07/30 12:13:24;;;;;;;9.00;2.50;;;;;;;;;;5058814;28;20397;-75
2023/07/30 12:15:52;;;;;;;6.60;2.90;;;;;;;;;;5075787;28;20536;-75
2023/07/30 12:18:19;;;;;;;10.00;2.20;;;;;;;;;;5093391;28;20035;-75
2023/07/30 12:20:44;;;;;;;13.00;2.65;;;;;;;;;;5058418;28;20024;-75
2023/07/30 12:23:09;;;;;;;9.25;2.72;;;;;;;;;;5075508;28;20099;-76
2023/07/30 12:25:35;;;;;;;13.82;4.82;;;;;;;;;;5093704;28;20031;-75
2023/07/30 12:28:00;;;;;;;16.20;2.85;;;;;;;;;;5075080;28;20478;-75
2023/07/30 12:30:27;;;;;;;11.38;2.50;;;;;;;;;;5075274;28;20035;-75
2023/07/30 12:32:52;;;;;;;20.33;3.65;;;;;;;;;;5075578;28;20020;-76
2023/07/30 12:35:18;;;;;;;13.85;2.90;;;;;;;;;;5075425;28;20023;-76
2023/07/30 12:37:43;;;;;;;9.70;2.65;;;;;;;;;;5075302;28;20020;-76
2023/07/30 12:40:08;;;;;;;10.50;3.28;;;;;;;;;;5093799;28;20385;-75
2023/07/30 12:42:34;;;;;;;10.77;2.67;;;;;;;;;;5074761;28;20062;-74
2023/07/30 12:44:59;;;;;;;12.90;3.17;;;;;;;;;;5075642;28;20067;-74
2023/07/30 12:47:24;;;;;;;14.50;3.28;;;;;;;;;;5093243;28;20070;-75
2023/07/30 12:49:50;;;;;;;18.48;3.50;;;;;;;;;;5093140;28;20488;-75
2023/07/30 12:52:15;;;;;;;10.60;2.88;;;;;;;;;;5075436;28;20055;-75
2023/07/30 12:54:40;;;;;;;9.23;3.03;;;;;;;;;;5074614;28;20028;-75
2023/07/30 12:57:06;;;;;;;10.48;3.47;;;;;;;;;;5093095;28;20430;-76
2023/07/30 12:59:35;;;;;;;9.35;2.83;;;;;;;;;;5095201;28;20039;-75
2023/07/30 13:02:01;;;;;;;10.63;3.05;;;;;;;;;;5079036;28;20027;-75
2023/07/30 13:04:29;;;;;;;8.15;3.00;;;;;;;;;;5077890;28;20028;-75
2023/07/30 13:06:55;;;;;;;8.63;2.83;;;;;;;;;;5079025;28;20024;-75
2023/07/30 13:09:20;;;;;;;16.23;3.17;;;;;;;;;;5078831;28;20504;-75
2023/07/30 13:11:45;;;;;;;13.30;3.28;;;;;;;;;;5096675;28;20028;-76
2023/07/30 13:14:13;;;;;;;10.05;3.88;;;;;;;;;;5062531;28;20032;-76
2023/07/30 13:16:39;;;;;;;15.40;3.30;;;;;;;;;;5096205;28;20503;-77
2023/07/30 13:19:04;;;;;;;11.55;2.72;;;;;;;;;;5078307;28;20028;-76
2023/07/30 13:21:29;;;;;;;11.48;3.55;;;;;;;;;;5062085;28;20024;-76
2023/07/30 13:23:54;;;;;;;16.35;3.60;;;;;;;;;;5097082;28;20032;-76
2023/07/30 13:26:20;;;;;;;10.88;3.30;;;;;;;;;;5061754;28;20020;-76
2023/07/30 13:28:48;;;;;;;15.05;3.50;;;;;;;;;;5078759;28;20103;-79
2023/07/30 13:31:13;;;;;;;11.18;3.25;;;;;;;;;;5080250;28;20504;-81
2023/07/30 13:33:38;;;;;;;9.85;3.30;;;;;;;;;;5080082;28;20028;-78
2023/07/30 13:36:05;;;;;;;10.35;3.63;;;;;;;;;;5079748;28;20085;-81
2023/07/30 13:38:31;;;;;;;9.82;3.22;;;;;;;;;;5079101;28;20076;-79
2023/07/30 13:40:56;;;;;;;13.30;3.28;;;;;;;;;;5079830;28;20023;-78
2023/07/30 13:43:21;;;;;;;6.15;3.25;;;;;;;;;;5080103;28;20024;-79
2023/07/30 13:45:50;;;;;;;12.70;4.05;;;;;;;;;;5063004;28;20371;-78
2023/07/30 13:48:15;;;;;;;14.63;5.68;;;;;;;;;;5097622;28;20432;-78
2023/07/30 13:50:40;;;;;;;10.90;3.72;;;;;;;;;;5080231;28;20023;-81
2023/07/30 13:53:06;;;;;;;11.10;4.57;;;;;;;;;;5081315;28;20126;-80
2023/07/30 13:55:31;;;;;;;6.80;2.35;;;;;;;;;;5082096;28;20031;-81
2023/07/30 13:57:56;;;;;;;12.40;3.65;;;;;;;;;;5082179;28;20077;-81
2023/07/30 14:00:25;;;;;;;5.88;2.55;;;;;;;;;;5081736;28;20105;-78
2023/07/30 14:02:50;;;;;;;5.82;3.15;;;;;;;;;;5066242;28;20103;-77
2023/07/30 14:05:16;;;;;;;9.18;2.85;;;;;;;;;;5081911;28;20052;-79
2023/07/30 14:07:41;;;;;;;16.17;3.60;;;;;;;;;;5065976;28;20012;-80
2023/07/30 14:10:07;;;;;;;13.30;3.20;;;;;;;;;;5071075;28;20062;-79
2023/07/30 14:12:32;;;;;;;6.20;2.50;;;;;;;;;;5081089;28;20022;-79
2023/07/30 14:14:57;;;;;;;6.78;2.75;;;;;;;;;;5099689;28;20477;-79
2023/07/30 14:17:23;;;;;;;11.73;3.50;;;;;;;;;;5080625;28;20115;-78
2023/07/30 14:19:48;;;;;;;11.65;3.17;;;;;;;;;;5064764;28;20030;-79
2023/07/30 14:22:13;;;;;;;7.22;2.70;;;;;;;;;;5075737;28;20025;-77
2023/07/30 14:24:44;;;;;;;7.32;3.60;;;;;;;;;;5098876;28;20053;-79
2023/07/30 14:27:10;;;;;;;10.75;3.50;;;;;;;;;;5080061;28;20020;-77